sensor_id;sensor_type;location;lat;lon;timestamp;temperature;humidity
26270;DHT22;15937;50.612;6.656;2024-03-08T00:03:17;3.60;99.90
26270;DHT22;15937;50.612;6.656;2024-03-08T00:07:19;3.40;99.90
26270;DHT22;15937;50.612;6.656;2024-03-08T00:11:22;3.30;99.90
26270;DHT22;15937;50.612;6.656;2024-03-08T00:15:24;3.30;99.90
26270;DHT22;15937;50.612;6.656;2024-03-08T00:19:25;3.20;99.90
26270;DHT22;15937;50.612;6.656;2024-03-08T00:23:27;3.20;99.90
26270;DHT22;15937;50.612;6.656;2024-03-08T00:27:30;3.20;99.90
26270;DHT22;15937;50.612;6.656;2024-03-08T00:31:36;3.10;99.90
26270;DHT22;15937;50.612;6.656;2024-03-08T00:35:38;3.10;99.90
26270;DHT22;15937;50.612;6.656;2024-03-08T00:39:41;3.00;99.90
26270;DHT22;15937;50.612;6.656;2024-03-08T00:43:43;3.10;99.90
26270;DHT22;15937;50.612;6.656;2024-03-08T00:47:46;2.90;99.90
26270;DHT22;15937;50.612;6.656;2024-03-08T00:51:48;2.90;99.90
26270;DHT22;15937;50.612;6.656;2024-03-08T00:55:50;2.90;99.90
26270;DHT22;15937;50.612;6.656;2024-03-08T00:59:52;2.70;99.90
26270;DHT22;15937;50.612;6.656;2024-03-08T01:03:55;2.80;99.90
26270;DHT22;15937;50.612;6.656;2024-03-08T01:07:57;2.80;99.90
26270;DHT22;15937;50.612;6.656;2024-03-08T01:11:59;2.70;99.90
26270;DHT22;15937;50.612;6.656;2024-03-08T01:16:01;2.70;99.90
26270;DHT22;15937;50.612;6.656;2024-03-08T01:20:04;2.70;99.90
26270;DHT22;15937;50.612;6.656;2024-03-08T01:24:07;2.60;99.90
26270;DHT22;15937;50.612;6.656;2024-03-08T01:28:09;2.70;99.90
26270;DHT22;15937;50.612;6.656;2024-03-08T01:32:11;2.70;99.90
26270;DHT22;15937;50.612;6.656;2024-03-08T01:36:14;2.70;99.90
26270;DHT22;15937;50.612;6.656;2024-03-08T01:40:17;2.70;99.90
26270;DHT22;15937;50.612;6.656;2024-03-08T01:44:20;2.60;99.90
26270;DHT22;15937;50.612;6.656;2024-03-08T01:48:22;2.70;99.90
26270;DHT22;15937;50.612;6.656;2024-03-08T01:52:26;2.50;99.90
26270;DHT22;15937;50.612;6.656;2024-03-08T01:56:29;2.50;99.90
26270;DHT22;15937;50.612;6.656;2024-03-08T02:00:34;2.60;99.90
26270;DHT22;15937;50.612;6.656;2024-03-08T02:04:37;2.60;99.90
26270;DHT22;15937;50.612;6.656;2024-03-08T02:08:43;2.50;99.90
26270;DHT22;15937;50.612;6.656;2024-03-08T02:12:48;2.60;99.90
26270;DHT22;15937;50.612;6.656;2024-03-08T02:16:51;2.60;99.90
26270;DHT22;15937;50.612;6.656;2024-03-08T02:20:54;2.50;99.90
26270;DHT22;15937;50.612;6.656;2024-03-08T02:24:58;2.30;99.90
26270;DHT22;15937;50.612;6.656;2024-03-08T02:29:01;2.10;99.90
26270;DHT22;15937;50.612;6.656;2024-03-08T02:33:04;2.20;99.90
26270;DHT22;15937;50.612;6.656;2024-03-08T02:37:06;2.20;99.90
26270;DHT22;15937;50.612;6.656;2024-03-08T02:41:09;2.20;99.90
26270;DHT22;15937;50.612;6.656;2024-03-08T02:45:13;2.20;99.90
26270;DHT22;15937;50.612;6.656;2024-03-08T02:49:15;2.10;99.90
26270;DHT22;15937;50.612;6.656;2024-03-08T02:53:18;2.10;99.90
26270;DHT22;15937;50.612;6.656;2024-03-08T02:57:21;2.20;99.90
26270;DHT22;15937;50.612;6.656;2024-03-08T03:01:23;2.20;99.90
26270;DHT22;15937;50.612;6.656;2024-03-08T03:05:26;2.10;99.90
26270;DHT22;15937;50.612;6.656;2024-03-08T03:09:28;2.10;99.90
26270;DHT22;15937;50.612;6.656;2024-03-08T03:13:30;2.00;99.90
26270;DHT22;15937;50.612;6.656;2024-03-08T03:17:32;1.80;99.90
26270;DHT22;15937;50.612;6.656;2024-03-08T03:21:34;1.80;99.90
26270;DHT22;15937;50.612;6.656;2024-03-08T03:25:37;1.80;99.90
26270;DHT22;15937;50.612;6.656;2024-03-08T03:29:43;1.60;99.90
26270;DHT22;15937;50.612;6.656;2024-03-08T03:33:49;1.60;99.90
26270;DHT22;15937;50.612;6.656;2024-03-08T03:37:53;1.50;99.90
26270;DHT22;15937;50.612;6.656;2024-03-08T03:42:12;1.40;99.90
26270;DHT22;15937;50.612;6.656;2024-03-08T03:46:14;1.50;99.90
26270;DHT22;15937;50.612;6.656;2024-03-08T03:50:16;1.40;99.90
26270;DHT22;15937;50.612;6.656;2024-03-08T03:54:18;1.50;99.90
26270;DHT22;15937;50.612;6.656;2024-03-08T03:58:20;1.40;99.90
26270;DHT22;15937;50.612;6.656;2024-03-08T04:02:25;1.40;99.90
26270;DHT22;15937;50.612;6.656;2024-03-08T04:06:28;1.40;99.90
26270;DHT22;15937;50.612;6.656;2024-03-08T04:10:30;1.30;99.90
26270;DHT22;15937;50.612;6.656;2024-03-08T04:14:33;1.20;99.90
26270;DHT22;15937;50.612;6.656;2024-03-08T04:18:36;1.20;99.90
26270;DHT22;15937;50.612;6.656;2024-03-08T04:22:43;1.20;99.90
26270;DHT22;15937;50.612;6.656;2024-03-08T04:26:46;1.30;99.90
26270;DHT22;15937;50.612;6.656;2024-03-08T04:30:49;1.20;99.90
26270;DHT22;15937;50.612;6.656;2024-03-08T04:34:52;1.30;99.90
26270;DHT22;15937;50.612;6.656;2024-03-08T04:38:54;1.30;99.90
26270;DHT22;15937;50.612;6.656;2024-03-08T04:42:56;1.20;99.90
26270;DHT22;15937;50.612;6.656;2024-03-08T04:47:00;1.30;99.90
26270;DHT22;15937;50.612;6.656;2024-03-08T04:51:03;1.30;99.90
26270;DHT22;15937;50.612;6.656;2024-03-08T04:55:06;1.20;99.90
26270;DHT22;15937;50.612;6.656;2024-03-08T04:59:09;1.20;99.90
26270;DHT22;15937;50.612;6.656;2024-03-08T05:03:11;1.10;99.90
26270;DHT22;15937;50.612;6.656;2024-03-08T05:07:13;1.20;99.90
26270;DHT22;15937;50.612;6.656;2024-03-08T05:11:15;1.20;99.90
26270;DHT22;15937;50.612;6.656;2024-03-08T05:15:18;1.20;99.90
26270;DHT22;15937;50.612;6.656;2024-03-08T05:19:23;1.20;99.90
26270;DHT22;15937;50.612;6.656;2024-03-08T05:23:30;1.20;99.90
26270;DHT22;15937;50.612;6.656;2024-03-08T05:27:32;1.10;99.90
26270;DHT22;15937;50.612;6.656;2024-03-08T05:31:50;1.10;99.90
26270;DHT22;15937;50.612;6.656;2024-03-08T05:35:54;1.10;99.90
26270;DHT22;15937;50.612;6.656;2024-03-08T05:39:56;1.10;99.90
26270;DHT22;15937;50.612;6.656;2024-03-08T05:44:00;1.00;99.90
26270;DHT22;15937;50.612;6.656;2024-03-08T05:48:02;0.80;99.90
26270;DHT22;15937;50.612;6.656;2024-03-08T05:52:05;0.90;99.90
26270;DHT22;15937;50.612;6.656;2024-03-08T05:56:07;1.00;99.90
26270;DHT22;15937;50.612;6.656;2024-03-08T06:00:12;0.90;99.90
26270;DHT22;15937;50.612;6.656;2024-03-08T06:04:17;0.80;99.90
26270;DHT22;15937;50.612;6.656;2024-03-08T06:08:19;0.90;99.90
26270;DHT22;15937;50.612;6.656;2024-03-08T06:12:22;1.00;99.90
26270;DHT22;15937;50.612;6.656;2024-03-08T06:16:24;1.00;99.90
26270;DHT22;15937;50.612;6.656;2024-03-08T06:20:26;1.10;99.90
26270;DHT22;15937;50.612;6.656;2024-03-08T06:24:28;1.10;99.90
26270;DHT22;15937;50.612;6.656;2024-03-08T06:28:30;1.10;99.90
26270;DHT22;15937;50.612;6.656;2024-03-08T06:32:34;1.10;99.90
26270;DHT22;15937;50.612;6.656;2024-03-08T06:36:37;1.10;99.90
26270;DHT22;15937;50.612;6.656;2024-03-08T06:40:40;1.20;99.90
26270;DHT22;15937;50.612;6.656;2024-03-08T06:44:42;1.30;99.90
26270;DHT22;15937;50.612;6.656;2024-03-08T06:48:50;1.40;99.90
26270;DHT22;15937;50.612;6.656;2024-03-08T06:52:52;1.30;99.90
26270;DHT22;15937;50.612;6.656;2024-03-08T06:56:55;1.40;99.90
26270;DHT22;15937;50.612;6.656;2024-03-08T07:00:57;1.50;99.90
26270;DHT22;15937;50.612;6.656;2024-03-08T07:05:29;1.60;99.90
26270;DHT22;15937;50.612;6.656;2024-03-08T07:09:32;1.80;99.90
26270;DHT22;15937;50.612;6.656;2024-03-08T07:13:34;1.80;99.90
26270;DHT22;15937;50.612;6.656;2024-03-08T07:17:39;1.80;99.90
26270;DHT22;15937;50.612;6.656;2024-03-08T07:21:43;1.80;99.90
26270;DHT22;15937;50.612;6.656;2024-03-08T07:25:45;2.00;99.90
26270;DHT22;15937;50.612;6.656;2024-03-08T07:29:47;2.10;99.90
26270;DHT22;15937;50.612;6.656;2024-03-08T07:33:50;2.20;99.90
26270;DHT22;15937;50.612;6.656;2024-03-08T07:37:52;2.20;99.90
26270;DHT22;15937;50.612;6.656;2024-03-08T07:41:57;2.40;99.90
26270;DHT22;15937;50.612;6.656;2024-03-08T07:45:59;2.40;99.90
26270;DHT22;15937;50.612;6.656;2024-03-08T07:50:01;2.50;99.90
26270;DHT22;15937;50.612;6.656;2024-03-08T07:54:05;2.70;99.90
26270;DHT22;15937;50.612;6.656;2024-03-08T07:58:09;2.80;99.90
26270;DHT22;15937;50.612;6.656;2024-03-08T08:02:12;2.90;99.90
26270;DHT22;15937;50.612;6.656;2024-03-08T08:06:15;3.10;99.90
26270;DHT22;15937;50.612;6.656;2024-03-08T08:10:20;3.30;99.90
26270;DHT22;15937;50.612;6.656;2024-03-08T08:14:27;3.50;99.90
26270;DHT22;15937;50.612;6.656;2024-03-08T08:18:29;3.70;99.90
26270;DHT22;15937;50.612;6.656;2024-03-08T08:22:31;3.80;99.90
26270;DHT22;15937;50.612;6.656;2024-03-08T08:26:34;3.90;99.90
26270;DHT22;15937;50.612;6.656;2024-03-08T08:30:41;4.00;99.90
26270;DHT22;15937;50.612;6.656;2024-03-08T08:34:44;4.10;99.90
26270;DHT22;15937;50.612;6.656;2024-03-08T08:38:46;4.30;99.90
26270;DHT22;15937;50.612;6.656;2024-03-08T08:42:49;4.40;99.90
26270;DHT22;15937;50.612;6.656;2024-03-08T08:46:51;4.60;99.90
26270;DHT22;15937;50.612;6.656;2024-03-08T08:50:57;4.80;99.90
26270;DHT22;15937;50.612;6.656;2024-03-08T08:54:59;5.00;99.90
26270;DHT22;15937;50.612;6.656;2024-03-08T08:59:02;5.20;99.90
26270;DHT22;15937;50.612;6.656;2024-03-08T09:03:06;5.50;99.90
26270;DHT22;15937;50.612;6.656;2024-03-08T09:07:08;5.70;99.90
26270;DHT22;15937;50.612;6.656;2024-03-08T09:11:11;5.80;99.90
26270;DHT22;15937;50.612;6.656;2024-03-08T09:15:13;5.90;99.90
26270;DHT22;15937;50.612;6.656;2024-03-08T09:19:15;6.10;99.90
26270;DHT22;15937;50.612;6.656;2024-03-08T09:23:22;6.30;99.90
26270;DHT22;15937;50.612;6.656;2024-03-08T09:27:24;6.50;99.90
26270;DHT22;15937;50.612;6.656;2024-03-08T09:31:26;6.60;99.90
26270;DHT22;15937;50.612;6.656;2024-03-08T09:35:29;6.60;99.90
26270;DHT22;15937;50.612;6.656;2024-03-08T09:39:31;6.60;99.90
26270;DHT22;15937;50.612;6.656;2024-03-08T09:43:35;6.90;99.90
26270;DHT22;15937;50.612;6.656;2024-03-08T09:47:42;6.80;99.90
26270;DHT22;15937;50.612;6.656;2024-03-08T09:51:44;6.90;99.90
26270;DHT22;15937;50.612;6.656;2024-03-08T09:55:48;7.00;99.90
26270;DHT22;15937;50.612;6.656;2024-03-08T10:05:08;7.30;99.90
26270;DHT22;15937;50.612;6.656;2024-03-08T10:09:12;7.30;99.90
26270;DHT22;15937;50.612;6.656;2024-03-08T10:13:15;7.40;99.90
26270;DHT22;15937;50.612;6.656;2024-03-08T10:17:19;7.60;99.90
26270;DHT22;15937;50.612;6.656;2024-03-08T10:21:22;7.60;99.90
26270;DHT22;15937;50.612;6.656;2024-03-08T10:25:24;7.60;99.90
26270;DHT22;15937;50.612;6.656;2024-03-08T10:29:27;7.70;99.90
26270;DHT22;15937;50.612;6.656;2024-03-08T10:33:30;7.90;99.90
26270;DHT22;15937;50.612;6.656;2024-03-08T10:37:33;8.10;99.90
26270;DHT22;15937;50.612;6.656;2024-03-08T10:41:37;8.30;99.90
26270;DHT22;15937;50.612;6.656;2024-03-08T10:45:40;8.30;99.90
26270;DHT22;15937;50.612;6.656;2024-03-08T10:49:54;8.30;99.90
26270;DHT22;15937;50.612;6.656;2024-03-08T10:53:57;8.30;99.90
26270;DHT22;15937;50.612;6.656;2024-03-08T10:58:01;8.40;99.90
26270;DHT22;15937;50.612;6.656;2024-03-08T11:02:03;8.60;99.90
26270;DHT22;15937;50.612;6.656;2024-03-08T11:06:42;8.40;99.50
26270;DHT22;15937;50.612;6.656;2024-03-08T11:10:51;8.40;99.00
26270;DHT22;15937;50.612;6.656;2024-03-08T11:14:59;8.60;99.00
26270;DHT22;15937;50.612;6.656;2024-03-08T11:19:23;8.70;98.60
26270;DHT22;15937;50.612;6.656;2024-03-08T11:23:30;8.60;98.00
26270;DHT22;15937;50.612;6.656;2024-03-08T11:27:33;8.90;98.70
26270;DHT22;15937;50.612;6.656;2024-03-08T11:31:36;8.90;98.10
26270;DHT22;15937;50.612;6.656;2024-03-08T11:35:39;8.90;97.40
26270;DHT22;15937;50.612;6.656;2024-03-08T11:40:00;9.00;97.60
26270;DHT22;15937;50.612;6.656;2024-03-08T11:44:04;8.90;97.30
26270;DHT22;15937;50.612;6.656;2024-03-08T11:48:07;9.10;97.40
26270;DHT22;15937;50.612;6.656;2024-03-08T11:52:11;9.50;97.60
26270;DHT22;15937;50.612;6.656;2024-03-08T11:56:16;9.60;97.10
26270;DHT22;15937;50.612;6.656;2024-03-08T12:00:19;9.50;96.10
26270;DHT22;15937;50.612;6.656;2024-03-08T12:04:28;9.60;95.70
26270;DHT22;15937;50.612;6.656;2024-03-08T12:08:31;9.60;94.90
26270;DHT22;15937;50.612;6.656;2024-03-08T12:12:34;9.70;94.90
26270;DHT22;15937;50.612;6.656;2024-03-08T12:16:39;9.90;94.40
26270;DHT22;15937;50.612;6.656;2024-03-08T12:20:41;10.00;94.10
26270;DHT22;15937;50.612;6.656;2024-03-08T12:25:05;9.90;93.50
26270;DHT22;15937;50.612;6.656;2024-03-08T12:29:21;9.80;92.70
26270;DHT22;15937;50.612;6.656;2024-03-08T12:33:26;10.10;93.00
26270;DHT22;15937;50.612;6.656;2024-03-08T12:37:29;10.20;92.60
26270;DHT22;15937;50.612;6.656;2024-03-08T12:41:31;10.10;92.30
26270;DHT22;15937;50.612;6.656;2024-03-08T12:45:34;10.20;92.50
26270;DHT22;15937;50.612;6.656;2024-03-08T12:49:36;10.50;92.80
26270;DHT22;15937;50.612;6.656;2024-03-08T12:53:39;10.70;92.30
26270;DHT22;15937;50.612;6.656;2024-03-08T12:57:46;10.30;91.80
26270;DHT22;15937;50.612;6.656;2024-03-08T13:01:50;10.60;93.00
26270;DHT22;15937;50.612;6.656;2024-03-08T13:05:56;10.90;91.70
26270;DHT22;15937;50.612;6.656;2024-03-08T13:09:59;10.80;92.30
26270;DHT22;15937;50.612;6.656;2024-03-08T13:14:02;10.80;92.90
26270;DHT22;15937;50.612;6.656;2024-03-08T13:18:06;10.90;92.30
26270;DHT22;15937;50.612;6.656;2024-03-08T13:22:11;10.70;91.50
26270;DHT22;15937;50.612;6.656;2024-03-08T13:26:18;10.80;91.70
26270;DHT22;15937;50.612;6.656;2024-03-08T13:30:20;10.90;92.50
26270;DHT22;15937;50.612;6.656;2024-03-08T13:34:26;10.60;91.90
26270;DHT22;15937;50.612;6.656;2024-03-08T13:38:32;10.90;91.90
26270;DHT22;15937;50.612;6.656;2024-03-08T13:42:34;10.80;91.80
26270;DHT22;15937;50.612;6.656;2024-03-08T13:46:37;11.00;92.10
26270;DHT22;15937;50.612;6.656;2024-03-08T13:50:39;11.00;91.20
26270;DHT22;15937;50.612;6.656;2024-03-08T13:54:42;11.00;91.20
26270;DHT22;15937;50.612;6.656;2024-03-08T13:58:44;11.10;91.90
26270;DHT22;15937;50.612;6.656;2024-03-08T14:02:47;11.20;92.20
26270;DHT22;15937;50.612;6.656;2024-03-08T14:06:50;11.20;92.20
26270;DHT22;15937;50.612;6.656;2024-03-08T14:11:01;11.30;91.90
26270;DHT22;15937;50.612;6.656;2024-03-08T14:15:13;11.30;92.40
26270;DHT22;15937;50.612;6.656;2024-03-08T14:19:15;11.00;92.90
26270;DHT22;15937;50.612;6.656;2024-03-08T14:23:18;11.30;92.60
26270;DHT22;15937;50.612;6.656;2024-03-08T14:27:21;11.00;92.40
26270;DHT22;15937;50.612;6.656;2024-03-08T14:31:24;10.90;92.70
26270;DHT22;15937;50.612;6.656;2024-03-08T14:35:27;11.10;92.40
26270;DHT22;15937;50.612;6.656;2024-03-08T14:39:31;11.00;92.20
26270;DHT22;15937;50.612;6.656;2024-03-08T14:43:35;11.00;92.30
26270;DHT22;15937;50.612;6.656;2024-03-08T14:47:37;11.00;92.50
26270;DHT22;15937;50.612;6.656;2024-03-08T14:51:40;10.90;92.10
26270;DHT22;15937;50.612;6.656;2024-03-08T14:55:42;10.90;92.50
26270;DHT22;15937;50.612;6.656;2024-03-08T14:59:45;10.80;92.50
26270;DHT22;15937;50.612;6.656;2024-03-08T15:03:49;11.00;92.60
26270;DHT22;15937;50.612;6.656;2024-03-08T15:07:53;10.80;92.90
26270;DHT22;15937;50.612;6.656;2024-03-08T15:11:59;11.00;92.70
26270;DHT22;15937;50.612;6.656;2024-03-08T15:16:02;11.20;92.20
26270;DHT22;15937;50.612;6.656;2024-03-08T15:20:10;11.50;91.70
26270;DHT22;15937;50.612;6.656;2024-03-08T15:24:17;11.60;91.60
26270;DHT22;15937;50.612;6.656;2024-03-08T15:28:23;11.20;91.90
26270;DHT22;15937;50.612;6.656;2024-03-08T15:32:32;10.90;92.00
26270;DHT22;15937;50.612;6.656;2024-03-08T15:36:34;10.90;92.30
26270;DHT22;15937;50.612;6.656;2024-03-08T15:40:36;10.80;92.30
26270;DHT22;15937;50.612;6.656;2024-03-08T15:44:39;10.90;92.60
26270;DHT22;15937;50.612;6.656;2024-03-08T15:48:43;11.20;92.60
26270;DHT22;15937;50.612;6.656;2024-03-08T15:52:45;11.30;92.30
26270;DHT22;15937;50.612;6.656;2024-03-08T15:56:48;11.00;92.30
26270;DHT22;15937;50.612;6.656;2024-03-08T16:00:51;10.50;92.50
26270;DHT22;15937;50.612;6.656;2024-03-08T16:04:54;10.40;92.50
26270;DHT22;15937;50.612;6.656;2024-03-08T16:08:56;10.70;92.80
26270;DHT22;15937;50.612;6.656;2024-03-08T16:13:01;10.50;92.60
26270;DHT22;15937;50.612;6.656;2024-03-08T16:17:05;10.30;92.50
26270;DHT22;15937;50.612;6.656;2024-03-08T16:21:09;10.10;92.70
26270;DHT22;15937;50.612;6.656;2024-03-08T16:25:13;10.00;92.70
26270;DHT22;15937;50.612;6.656;2024-03-08T16:29:15;10.00;92.80
26270;DHT22;15937;50.612;6.656;2024-03-08T16:33:18;10.10;93.20
26270;DHT22;15937;50.612;6.656;2024-03-08T16:37:20;10.00;93.40
26270;DHT22;15937;50.612;6.656;2024-03-08T16:41:25;9.80;93.70
26270;DHT22;15937;50.612;6.656;2024-03-08T16:45:26;9.50;93.60
26270;DHT22;15937;50.612;6.656;2024-03-08T16:49:29;9.60;93.70
26270;DHT22;15937;50.612;6.656;2024-03-08T16:53:32;9.30;93.80
26270;DHT22;15937;50.612;6.656;2024-03-08T16:57:35;9.40;95.00
26270;DHT22;15937;50.612;6.656;2024-03-08T17:01:38;9.30;94.30
26270;DHT22;15937;50.612;6.656;2024-03-08T17:05:40;9.00;94.50
26270;DHT22;15937;50.612;6.656;2024-03-08T17:09:52;9.10;95.10
26270;DHT22;15937;50.612;6.656;2024-03-08T17:13:55;9.00;95.50
26270;DHT22;15937;50.612;6.656;2024-03-08T17:18:00;8.80;95.50
26270;DHT22;15937;50.612;6.656;2024-03-08T17:22:09;8.80;95.70
26270;DHT22;15937;50.612;6.656;2024-03-08T17:26:12;8.70;95.90
26270;DHT22;15937;50.612;6.656;2024-03-08T17:30:15;8.60;96.30
26270;DHT22;15937;50.612;6.656;2024-03-08T17:34:28;8.60;96.20
26270;DHT22;15937;50.612;6.656;2024-03-08T17:38:31;8.50;96.10
26270;DHT22;15937;50.612;6.656;2024-03-08T17:42:33;8.30;96.50
26270;DHT22;15937;50.612;6.656;2024-03-08T17:46:35;8.40;96.80
26270;DHT22;15937;50.612;6.656;2024-03-08T17:50:40;8.40;96.90
26270;DHT22;15937;50.612;6.656;2024-03-08T17:54:42;8.30;96.80
26270;DHT22;15937;50.612;6.656;2024-03-08T17:58:44;8.20;97.30
26270;DHT22;15937;50.612;6.656;2024-03-08T18:02:49;8.00;97.20
26270;DHT22;15937;50.612;6.656;2024-03-08T18:06:51;8.00;97.60
26270;DHT22;15937;50.612;6.656;2024-03-08T18:10:54;7.80;97.70
26270;DHT22;15937;50.612;6.656;2024-03-08T18:14:56;7.90;98.30
26270;DHT22;15937;50.612;6.656;2024-03-08T18:19:03;7.80;97.80
26270;DHT22;15937;50.612;6.656;2024-03-08T18:23:09;7.60;98.00
26270;DHT22;15937;50.612;6.656;2024-03-08T18:27:11;7.70;98.20
26270;DHT22;15937;50.612;6.656;2024-03-08T18:31:13;7.60;98.20
26270;DHT22;15937;50.612;6.656;2024-03-08T18:35:17;7.50;98.70
26270;DHT22;15937;50.612;6.656;2024-03-08T18:39:20;7.30;98.70
26270;DHT22;15937;50.612;6.656;2024-03-08T18:43:28;7.40;99.10
26270;DHT22;15937;50.612;6.656;2024-03-08T18:47:30;7.40;99.00
26270;DHT22;15937;50.612;6.656;2024-03-08T18:51:32;7.30;98.90
26270;DHT22;15937;50.612;6.656;2024-03-08T18:55:34;7.20;99.30
26270;DHT22;15937;50.612;6.656;2024-03-08T18:59:37;7.20;99.30
26270;DHT22;15937;50.612;6.656;2024-03-08T19:03:41;7.20;99.60
26270;DHT22;15937;50.612;6.656;2024-03-08T19:07:45;7.00;99.90
26270;DHT22;15937;50.612;6.656;2024-03-08T19:11:48;7.00;99.90
26270;DHT22;15937;50.612;6.656;2024-03-08T19:15:52;7.00;99.90
26270;DHT22;15937;50.612;6.656;2024-03-08T19:19:56;7.00;99.90
26270;DHT22;15937;50.612;6.656;2024-03-08T19:23:58;6.90;99.90
26270;DHT22;15937;50.612;6.656;2024-03-08T19:28:02;6.80;99.90
26270;DHT22;15937;50.612;6.656;2024-03-08T19:32:07;6.80;99.90
26270;DHT22;15937;50.612;6.656;2024-03-08T19:36:09;6.50;99.90
26270;DHT22;15937;50.612;6.656;2024-03-08T19:40:15;6.40;99.90
26270;DHT22;15937;50.612;6.656;2024-03-08T19:44:26;6.30;99.90
26270;DHT22;15937;50.612;6.656;2024-03-08T19:48:28;6.20;99.90
26270;DHT22;15937;50.612;6.656;2024-03-08T19:52:30;6.10;99.90
26270;DHT22;15937;50.612;6.656;2024-03-08T19:56:32;6.10;99.90
26270;DHT22;15937;50.612;6.656;2024-03-08T20:00:36;6.10;99.90
26270;DHT22;15937;50.612;6.656;2024-03-08T20:04:39;5.90;99.90
26270;DHT22;15937;50.612;6.656;2024-03-08T20:08:41;5.80;99.90
26270;DHT22;15937;50.612;6.656;2024-03-08T20:12:44;5.30;99.90
26270;DHT22;15937;50.612;6.656;2024-03-08T20:16:47;5.30;99.90
26270;DHT22;15937;50.612;6.656;2024-03-08T20:20:51;5.20;99.90
26270;DHT22;15937;50.612;6.656;2024-03-08T20:24:56;5.40;99.90
26270;DHT22;15937;50.612;6.656;2024-03-08T20:28:58;5.50;99.90
26270;DHT22;15937;50.612;6.656;2024-03-08T20:33:01;5.40;99.90
26270;DHT22;15937;50.612;6.656;2024-03-08T20:37:06;5.10;99.90
26270;DHT22;15937;50.612;6.656;2024-03-08T20:41:11;5.10;99.90
26270;DHT22;15937;50.612;6.656;2024-03-08T20:45:14;5.00;99.90
26270;DHT22;15937;50.612;6.656;2024-03-08T20:49:17;5.00;99.90
26270;DHT22;15937;50.612;6.656;2024-03-08T20:53:22;5.00;99.90
26270;DHT22;15937;50.612;6.656;2024-03-08T20:57:23;5.10;99.90
26270;DHT22;15937;50.612;6.656;2024-03-08T21:01:26;5.10;99.90
26270;DHT22;15937;50.612;6.656;2024-03-08T21:05:34;5.10;99.90
26270;DHT22;15937;50.612;6.656;2024-03-08T21:09:37;5.00;99.90
26270;DHT22;15937;50.612;6.656;2024-03-08T21:13:38;4.50;99.90
26270;DHT22;15937;50.612;6.656;2024-03-08T21:17:41;4.70;99.90
26270;DHT22;15937;50.612;6.656;2024-03-08T21:21:43;4.30;99.90
26270;DHT22;15937;50.612;6.656;2024-03-08T21:25:46;4.30;99.90
26270;DHT22;15937;50.612;6.656;2024-03-08T21:29:48;4.30;99.90
26270;DHT22;15937;50.612;6.656;2024-03-08T21:33:50;4.20;99.90
26270;DHT22;15937;50.612;6.656;2024-03-08T21:37:53;4.40;99.90
26270;DHT22;15937;50.612;6.656;2024-03-08T21:41:58;4.40;99.90
26270;DHT22;15937;50.612;6.656;2024-03-08T21:46:00;4.40;99.90
26270;DHT22;15937;50.612;6.656;2024-03-08T21:50:02;4.40;99.90
26270;DHT22;15937;50.612;6.656;2024-03-08T21:54:04;4.30;99.90
26270;DHT22;15937;50.612;6.656;2024-03-08T21:58:07;4.30;99.90
26270;DHT22;15937;50.612;6.656;2024-03-08T22:02:09;4.40;99.90
26270;DHT22;15937;50.612;6.656;2024-03-08T22:06:12;4.50;99.90
26270;DHT22;15937;50.612;6.656;2024-03-08T22:10:15;4.60;99.90
26270;DHT22;15937;50.612;6.656;2024-03-08T22:14:27;4.60;99.90
26270;DHT22;15937;50.612;6.656;2024-03-08T22:18:29;4.30;99.90
26270;DHT22;15937;50.612;6.656;2024-03-08T22:22:34;4.40;99.90
26270;DHT22;15937;50.612;6.656;2024-03-08T22:26:38;4.60;99.90
26270;DHT22;15937;50.612;6.656;2024-03-08T22:30:41;4.70;99.90
26270;DHT22;15937;50.612;6.656;2024-03-08T22:34:43;4.90;99.90
26270;DHT22;15937;50.612;6.656;2024-03-08T22:38:45;5.10;99.90
26270;DHT22;15937;50.612;6.656;2024-03-08T22:42:47;5.20;99.90
26270;DHT22;15937;50.612;6.656;2024-03-08T22:46:49;5.50;99.90
26270;DHT22;15937;50.612;6.656;2024-03-08T22:50:52;5.60;99.90
26270;DHT22;15937;50.612;6.656;2024-03-08T22:54:54;5.60;99.90
26270;DHT22;15937;50.612;6.656;2024-03-08T22:58:56;5.70;99.90
26270;DHT22;15937;50.612;6.656;2024-03-08T23:02:59;5.80;99.90
26270;DHT22;15937;50.612;6.656;2024-03-08T23:07:01;5.50;99.90
26270;DHT22;15937;50.612;6.656;2024-03-08T23:11:03;5.20;99.90
26270;DHT22;15937;50.612;6.656;2024-03-08T23:15:12;5.20;99.90
26270;DHT22;15937;50.612;6.656;2024-03-08T23:19:18;5.20;99.90
26270;DHT22;15937;50.612;6.656;2024-03-08T23:23:22;5.10;99.90
26270;DHT22;15937;50.612;6.656;2024-03-08T23:27:26;4.90;99.90
26270;DHT22;15937;50.612;6.656;2024-03-08T23:31:30;4.80;99.90
26270;DHT22;15937;50.612;6.656;2024-03-08T23:35:35;4.80;99.90
26270;DHT22;15937;50.612;6.656;2024-03-08T23:39:41;4.90;99.90
26270;DHT22;15937;50.612;6.656;2024-03-08T23:43:43;4.90;99.90
26270;DHT22;15937;50.612;6.656;2024-03-08T23:47:51;4.70;99.90
26270;DHT22;15937;50.612;6.656;2024-03-08T23:51:55;4.60;99.90
26270;DHT22;15937;50.612;6.656;2024-03-08T23:55:57;4.70;99.90
26270;DHT22;15937;50.612;6.656;2024-03-08T23:59:59;4.70;99.90
